Latest Weather Observations for Kyabram

IDV60801

Issued at 3:05 pm EST Saturday 23 August 2014 (issued every 30 minutes, with the page automatically refreshed every 10 minutes)

About weather observations | Map of weather stations | Latest weather observations for VIC | Other Formats
Station Details ID: 080091 Name: KYABRAM Lat: -36.34 Lon: 145.06 Height: 105.0 m
Data from the previous 72 hours. | See also: Recent months at Kyabram
Date/Time
EST
Temp
°C
App
Temp
°C
Dew
Point
Rel
Hum
%
Delta-T
°C
Wind Press
QNH
hPa
Press
MSL
hPa
Rain
since 9 am
mm
Dir
 
Spd
km/h
Gust
km/h
Spd
kts
Gust
kts
23/03:00pm 19.0 15.5 10.3 57 4.7 NNE 19 28 10 15 - - 0.0
23/02:30pm 18.8 16.1 10.4 58 4.5 NNE 15 24 8 13 - - 0.0
23/02:00pm 18.6 16.4 10.9 61 4.2 NNE 13 22 7 12 - - 0.0
23/01:30pm 18.7 16.6 11.3 62 4.1 NNE 13 19 7 10 - - 0.0
23/01:00pm 17.8 14.8 10.7 63 3.8 NNE 17 26 9 14 - - 0.0
23/12:30pm 17.3 14.7 10.7 65 3.6 NNE 15 20 8 11 - - 0.0
23/12:00pm 16.8 14.3 11.1 69 3.1 N 15 24 8 13 - - 0.0
23/11:30am 14.9 12.5 10.1 73 2.5 NNE 13 20 7 11 - - 0.0
23/11:00am 15.1 11.9 9.9 71 2.7 NNE 17 26 9 14 - - 0.0
23/10:30am 14.5 12.1 10.1 75 2.3 NNE 13 20 7 11 - - 0.0
23/10:00am 12.5 10.0 9.7 83 1.4 NNE 13 22 7 12 - - 0.0
23/09:30am 12.3 9.7 9.5 83 1.4 NNE 13 22 7 12 - - 0.0
23/09:00am 11.0 7.6 9.1 88 1.0 NNE 17 28 9 15 - - 0.0
23/08:30am 9.6 7.2 8.5 93 0.5 NE 11 17 6 9 - - 0.0
23/08:00am 8.7 6.5 7.9 95 0.4 NE 9 15 5 8 - - 0.0
23/07:30am 7.1 4.7 7.0 99 0.0 NE 9 15 5 8 - - 0.0
23/07:00am 6.1 3.5 6.0 99 0.0 ENE 9 11 5 6 - - 0.0
23/06:30am 6.4 3.8 6.3 99 0.0 NE 9 13 5 7 - - 0.0
23/06:00am 6.5 4.0 6.4 99 0.0 ENE 9 13 5 7 - - 0.0
23/05:30am 5.9 3.2 5.8 99 0.0 ENE 9 11 5 6 - - 0.0
23/05:00am 5.8 3.1 5.5 98 0.1 ENE 9 11 5 6 - - 0.0
23/04:30am 5.5 3.1 5.4 99 0.0 E 7 9 4 5 - - 0.0
23/04:00am 5.6 4.6 5.5 99 0.0 CALM 0 0 0 0 - - 0.0
23/03:30am 5.8 4.8 5.7 99 0.0 CALM 0 0 0 0 - - 0.0
23/03:00am 5.9 4.9 5.8 99 0.0 CALM 0 0 0 0 - - 0.0
23/02:30am 5.8 4.8 5.7 99 0.0 CALM 0 0 0 0 - - 0.0
23/02:00am 5.4 4.4 5.4 100 0.0 CALM 0 0 0 0 - - 0.0
23/01:30am 5.9 5.0 5.9 100 0.0 CALM 0 0 0 0 - - 0.0
23/01:00am 6.0 5.1 5.9 99 0.0 CALM 0 0 0 0 - - 0.0
23/12:30am 6.1 5.2 6.0 99 0.0 CALM 0 0 0 0 - - 0.0
23/12:00am 6.6 5.8 6.5 99 0.0 E 0 0 0 0 - - 0.0
 
Date/Time
EST
Temp
°C
App
Temp
°C
Dew
Point
Rel
Hum
%
Delta-T
°C
Wind Press
QNH
hPa
Press
MSL
hPa
Rain
since 9 am
mm
Dir
 
Spd
km/h
Gust
km/h
Spd
kts
Gust
kts
22/11:30pm 6.9 6.2 6.8 99 0.0 CALM 0 0 0 0 - - 0.0
22/11:00pm 7.2 6.5 7.1 99 0.0 CALM 0 0 0 0 - - 0.0
22/10:30pm 7.3 6.7 7.2 99 0.0 CALM 0 0 0 0 - - 0.0
22/10:00pm 7.0 6.2 6.4 96 0.3 CALM 0 0 0 0 - - 0.0
22/09:30pm 7.5 6.8 6.9 96 0.3 CALM 0 0 0 0 - - 0.0
22/09:00pm 7.9 7.2 7.1 95 0.4 CALM 0 0 0 0 - - 0.0
22/08:30pm 8.3 7.6 7.1 92 0.6 SE 0 0 0 0 - - 0.0
22/08:00pm 8.8 8.0 6.6 86 1.0 CALM 0 0 0 0 - - 0.0
22/07:30pm 9.6 8.9 6.9 83 1.3 CALM 0 0 0 0 - - 0.0
22/07:00pm 10.6 9.8 6.7 77 1.8 CALM 0 0 0 0 - - 0.0
22/06:30pm 11.5 10.8 6.8 73 2.2 CALM 0 0 0 0 - - 0.0
22/06:00pm 13.3 12.6 6.9 65 3.1 CALM 0 0 0 0 - - 0.0
22/05:30pm 15.0 14.4 7.3 60 3.8 CALM 0 0 0 0 - - 0.0
22/05:00pm 16.1 13.7 6.8 54 4.6 E 9 15 5 8 - - 0.0
22/04:30pm 17.2 15.3 7.5 53 4.9 ENE 7 13 4 7 - - 0.0
22/04:00pm 17.0 14.1 6.5 50 5.2 E 11 17 6 9 - - 0.0
22/03:30pm 17.5 14.5 7.8 53 4.9 E 13 20 7 11 - - 0.0
22/03:00pm 18.2 16.2 8.7 54 4.9 NE 9 15 5 8 - - 0.0
22/02:30pm 17.6 14.9 7.4 51 5.2 ENE 11 17 6 9 - - 0.0
22/02:00pm 17.9 16.1 9.3 57 4.5 NNE 9 17 5 9 - - 0.0
22/01:30pm 17.5 15.2 7.3 51 5.1 NNE 9 15 5 8 - - 0.0
22/01:00pm 17.3 14.8 8.4 56 4.6 N 11 17 6 9 - - 0.0
22/12:30pm 17.1 14.7 8.5 57 4.4 NE 11 19 6 10 - - 0.0
22/12:00pm 16.4 13.9 8.1 58 4.2 NNE 11 17 6 9 - - 0.0
22/11:30am 15.8 13.1 8.8 63 3.6 ENE 13 20 7 11 - - 0.0
22/11:00am 15.2 13.2 8.7 65 3.3 NE 9 17 5 9 - - 0.0
22/10:30am 14.1 12.4 9.7 75 2.3 NE 9 15 5 8 - - 0.0
22/10:00am 12.3 10.1 9.3 82 1.5 E 11 15 6 8 - - 0.0
22/09:30am 11.1 9.7 9.5 90 0.8 E 7 11 4 6 - - 0.0
22/09:00am 9.3 9.2 9.3 100 0.0 CALM 0 0 0 0 - - 0.0
22/08:30am 7.4 - 7.5 - - CALM 0 0 0 0 - - 0.0
22/08:00am 5.8 - 5.9 - - CALM 0 0 0 0 - - 0.0
22/07:30am 3.9 2.6 3.9 100 0.0 CALM 0 0 0 0 - - 0.0
22/07:00am 3.5 2.1 3.5 100 0.0 CALM 0 0 0 0 - - 0.0
22/06:30am 2.2 0.6 2.2 100 0.0 CALM 0 0 0 0 - - 0.0
22/06:00am 2.1 0.4 2.1 100 0.0 CALM 0 0 0 0 - - 0.0
22/05:30am 2.0 0.3 2.0 100 0.0 CALM 0 0 0 0 - - 0.0
22/05:00am 3.1 1.6 3.1 100 0.0 CALM 0 0 0 0 - - 0.0
22/04:30am 2.0 0.3 2.0 100 0.0 CALM 0 0 0 0 - - 0.0
22/04:00am 3.5 2.1 3.5 100 0.0 CALM 0 0 0 0 - - 0.0
22/03:30am 3.8 2.4 3.8 100 0.0 CALM 0 0 0 0 - - 0.0
22/03:00am 3.3 1.9 3.3 100 0.0 CALM 0 0 0 0 - - 0.0
22/02:30am 4.4 3.2 4.4 100 0.0 CALM 0 0 0 0 - - 0.0
22/02:00am 4.4 3.2 4.4 100 0.0 CALM 0 0 0 0 - - 0.0
22/01:30am 5.7 4.7 5.7 100 0.0 CALM 0 0 0 0 - - 0.0
22/01:00am 5.9 5.0 5.9 100 0.0 CALM 0 0 0 0 - - 0.0
22/12:30am 4.5 3.3 4.5 100 0.0 CALM 0 0 0 0 - - 0.0
22/12:00am 4.6 3.4 4.6 100 0.0 CALM 0 0 0 0 - - 0.0
 
Date/Time
EST
Temp
°C
App
Temp
°C
Dew
Point
Rel
Hum
%
Delta-T
°C
Wind Press
QNH
hPa
Press
MSL
hPa
Rain
since 9 am
mm
Dir
 
Spd
km/h
Gust
km/h
Spd
kts
Gust
kts
21/11:30pm 5.2 4.1 5.2 100 0.0 CALM 0 0 0 0 - - 0.0
21/11:00pm 6.8 6.1 6.8 100 0.0 CALM 0 0 0 0 - - 0.0
21/10:30pm 6.4 5.6 6.4 100 0.0 CALM 0 0 0 0 - - 0.0
21/10:00pm 6.6 5.8 6.6 100 0.0 CALM 0 0 0 0 - - 0.0
21/09:30pm 6.5 5.7 6.5 100 0.0 CALM 0 0 0 0 - - 0.0
21/09:00pm 7.0 6.3 6.9 99 0.0 CALM 0 0 0 0 - - 0.0
21/08:30pm 7.2 6.5 6.8 97 0.2 CALM 0 0 0 0 - - 0.0
21/08:00pm 8.5 8.0 7.9 96 0.3 CALM 0 0 0 0 - - 0.0
21/07:30pm 9.2 8.8 8.3 94 0.4 CALM 0 0 0 0 - - 0.0
21/07:00pm 10.0 9.6 8.3 89 0.8 CALM 0 0 0 0 - - 0.0
21/06:30pm 10.9 10.5 8.3 84 1.3 CALM 0 0 0 0 - - 0.0
21/06:00pm 12.1 11.7 8.4 78 1.8 CALM 0 0 0 0 - - 0.0
21/05:30pm 13.8 12.3 9.0 73 2.4 E 7 9 4 5 - - 0.0
21/05:00pm 15.0 12.7 9.1 68 3.0 E 11 15 6 8 - - 0.0
21/04:30pm 16.0 13.9 9.9 67 3.2 E 11 17 6 9 - - 0.0
21/04:00pm 15.7 15.7 9.8 68 3.1 CALM 0 0 0 0 - - 0.0
21/03:30pm 16.3 14.4 9.0 62 3.8 ENE 9 13 5 7 - - 0.0
21/03:00pm 16.5 14.8 9.9 65 3.5 NE 9 13 5 7 - - 0.0
21/02:30pm 16.1 14.2 9.1 63 3.6 N 9 13 5 7 - - 0.0
21/02:00pm 16.1 14.8 9.8 66 3.3 N 7 11 4 6 - - 0.0
21/01:30pm 15.9 14.6 9.8 67 3.2 N 7 13 4 7 - - 0.0
21/01:00pm 15.1 12.9 9.2 68 3.0 NNE 11 15 6 8 - - 0.0
21/12:30pm 14.8 12.0 8.7 67 3.1 N 13 19 7 10 - - 0.0
21/12:00pm 15.2 12.9 8.9 66 3.2 NNE 11 17 6 9 - - 0.0
21/11:30am 14.9 12.1 8.6 66 3.2 NNE 13 20 7 11 - - 0.0
21/11:00am 14.3 12.0 9.1 71 2.7 NE 11 19 6 10 - - 0.0
21/10:30am 13.8 11.4 8.8 72 2.5 NE 11 19 6 10 - - 0.0
21/10:00am 12.2 9.3 8.1 76 2.0 NNE 13 20 7 11 - - 0.0
21/09:30am 10.8 6.9 6.9 77 1.9 NNE 17 22 9 12 - - 0.0
21/09:00am 9.9 6.9 7.5 85 1.2 NE 13 20 7 11 - - 0.0
21/08:30am 8.5 5.4 7.3 92 0.6 NE 13 20 7 11 - - 0.0
21/08:00am 7.1 4.3 7.0 99 0.0 ENE 11 19 6 10 - - 0.0
21/07:30am 5.7 3.0 5.7 100 0.0 E 9 13 5 7 - - 0.0
21/07:00am 5.0 2.5 5.0 100 0.0 E 7 13 4 7 - - 0.0
21/06:30am 5.2 2.4 5.2 100 0.0 ESE 9 13 5 7 - - 0.0
21/06:00am 5.4 4.4 5.4 100 0.0 CALM 0 0 0 0 - - 0.0
21/05:30am 5.3 4.2 5.3 100 0.0 CALM 0 0 0 0 - - 0.0
21/05:00am 4.8 3.6 4.7 99 0.0 CALM 0 0 0 0 - - 0.0
21/04:30am 5.7 4.7 5.6 99 0.0 CALM 0 0 0 0 - - 0.0
21/04:00am 6.5 5.6 5.9 96 0.3 CALM 0 0 0 0 - - 0.0
21/03:30am 7.3 6.4 6.2 93 0.5 CALM 0 7 0 4 - - 0.0
21/03:00am 8.0 6.1 6.5 90 0.7 SSE 6 9 3 5 - - 0.0
21/02:30am 8.0 5.9 6.6 91 0.6 SSE 7 9 4 5 - - 0.0
21/02:00am 7.6 5.6 6.2 91 0.6 SSE 6 11 3 6 - - 0.0
21/01:30am 7.7 5.6 6.5 92 0.6 SSE 7 11 4 6 - - 0.0
21/01:00am 7.9 5.8 6.5 91 0.6 SSE 7 9 4 5 - - 0.0
21/12:30am 8.0 6.1 6.5 90 0.7 S 6 9 3 5 - - 0.0
21/12:00am 8.6 6.2 6.9 89 0.8 SSE 9 13 5 7 - - 0.0
 
Date/Time
EST
Temp
°C
App
Temp
°C
Dew
Point
Rel
Hum
%
Delta-T
°C
Wind Press
QNH
hPa
Press
MSL
hPa
Rain
since 9 am
mm
Dir
 
Spd
km/h
Gust
km/h
Spd
kts
Gust
kts
20/11:30pm 8.4 6.0 6.9 90 0.7 S 9 13 5 7 - - 0.0
20/11:00pm 7.9 6.4 6.7 92 0.6 S 4 7 2 4 - - 0.0
20/10:30pm 8.1 6.1 6.4 89 0.8 S 6 7 3 4 - - 0.0
20/10:00pm 8.4 6.2 6.2 86 1.0 S 7 13 4 7 - - 0.0
20/09:30pm 9.1 6.9 6.4 83 1.3 S 7 15 4 8 - - 0.0
20/09:00pm 9.6 7.0 6.3 80 1.5 S 9 13 5 7 - - 0.0
20/08:30pm 9.6 7.0 6.3 80 1.5 S 9 13 5 7 - - 0.0
20/08:00pm 9.5 7.3 6.4 81 1.4 S 7 11 4 6 - - 0.0
20/07:30pm 10.4 7.9 6.5 77 1.8 S 9 15 5 8 - - 0.0
20/07:00pm 11.3 8.5 6.8 74 2.1 S 11 17 6 9 - - 0.0
20/06:30pm 12.0 11.5 7.9 76 2.0 CALM 0 0 0 0 - - 0.0
20/06:00pm 12.4 12.0 8.1 75 2.1 CALM 0 0 0 0 - - 0.0
20/05:30pm 12.5 12.1 8.2 75 2.1 CALM 0 0 0 0 - - 0.0
20/05:00pm 13.7 13.3 8.1 69 2.8 CALM 0 0 0 0 - - 0.0
20/04:30pm 14.6 12.3 7.4 62 3.6 S 9 13 5 7 - - 0.0
20/04:00pm 15.1 13.8 7.6 61 3.7 S 4 9 2 5 - - 0.0
20/03:30pm 15.2 13.5 7.7 61 3.8 SE 6 11 3 6 - - 0.0

Other Formats:

Comma delimited format used in spreadsheet applications
http://www.bom.gov.au/fwo/IDV60801/IDV60801.95833.axf

JavaScript Object Notation format (JSON) in row-major order
http://www.bom.gov.au/fwo/IDV60801/IDV60801.95833.json